Time;durP1;ratioP1;P1;durP2;ratioP2;P2;SDS_P1;SDS_P2;PMS_P1;PMS_P2;Temp;Humidity;BMP_temperature;BMP_pressure;BME280_temperature;BME280_humidity;BME280_pressure;Samples;Min_cycle;Max_cycle;Signal;HPM_P1;HPM_P2
2022/07/31 00:01:23;;;;;;;9.77;5.18;;;18.90;99.90;;;;;;4668218;30;20235;-88
2022/07/31 00:03:52;;;;;;;12.20;6.28;;;20.20;99.90;;;;;;4667493;30;20421;-86
2022/07/31 00:06:18;;;;;;;9.75;5.03;;;18.90;99.90;;;;;;4667960;30;20037;-87
2022/07/31 00:08:44;;;;;;;10.88;5.82;;;17.10;99.90;;;;;;4667757;30;20046;-87
2022/07/31 00:11:13;;;;;;;10.90;5.57;;;20.10;99.90;;;;;;4667805;30;20042;-87
2022/07/31 00:13:39;;;;;;;9.57;4.43;;;20.30;99.90;;;;;;4669030;30;20042;-88
2022/07/31 00:16:05;;;;;;;10.20;5.45;;;19.50;99.90;;;;;;4668142;30;20038;-87
2022/07/31 00:18:39;;;;;;;9.48;4.75;;;16.20;99.90;;;;;;4669026;30;20046;-87
2022/07/31 00:21:05;;;;;;;8.38;4.07;;;;;;;;;;4667581;30;20096;-86
2022/07/31 00:23:31;;;;;;;8.13;4.40;;;19.50;99.90;;;;;;4667290;30;20269;-86
2022/07/31 00:25:58;;;;;;;9.93;5.28;;;;;;;;;;4667072;30;20042;-85
2022/07/31 00:28:24;;;;;;;10.80;4.25;;;19.50;99.90;;;;;;4667177;30;20049;-85
2022/07/31 00:30:52;;;;;;;10.95;5.60;;;18.40;99.90;;;;;;4668400;30;20661;-84
2022/07/31 00:33:18;;;;;;;9.38;4.43;;;19.50;99.90;;;;;;4668292;30;20077;-84
2022/07/31 00:35:44;;;;;;;11.63;5.40;;;19.70;99.90;;;;;;4666777;30;20034;-84
2022/07/31 00:38:10;;;;;;;11.35;6.20;;;21.20;99.90;;;;;;4666846;30;20058;-84
2022/07/31 00:40:36;;;;;;;9.18;4.75;;;16.40;99.90;;;;;;4666571;30;20112;-84
2022/07/31 00:43:02;;;;;;;12.05;6.22;;;19.50;99.90;;;;;;4668412;30;20569;-83
2022/07/31 00:45:28;;;;;;;14.50;6.82;;;19.40;99.90;;;;;;4666930;30;20514;-83
2022/07/31 00:47:54;;;;;;;14.40;7.18;;;19.40;99.90;;;;;;4668001;30;20030;-83
2022/07/31 00:50:20;;;;;;;11.90;6.40;;;19.40;99.90;;;;;;4667994;30;20038;-83
2022/07/31 00:52:45;;;;;;;12.15;5.95;;;19.40;99.90;;;;;;4667997;30;20499;-83
2022/07/31 00:55:11;;;;;;;14.48;7.50;;;19.40;99.90;;;;;;4668037;30;20496;-82
2022/07/31 00:57:37;;;;;;;12.63;7.18;;;19.40;99.90;;;;;;4667798;30;20051;-83
2022/07/31 01:00:04;;;;;;;13.00;6.88;;;19.40;99.90;;;;;;4667773;30;20739;-82
2022/07/31 01:02:30;;;;;;;13.57;7.32;;;19.30;99.90;;;;;;4667790;30;20331;-82
2022/07/31 01:04:56;;;;;;;15.23;7.53;;;19.30;99.90;;;;;;4666352;30;20042;-83
2022/07/31 01:07:22;;;;;;;13.20;7.35;;;;;;;;;;4667949;30;20057;-84
2022/07/31 01:09:49;;;;;;;12.75;6.47;;;19.40;99.90;;;;;;4666281;30;20086;-83
2022/07/31 01:12:29;;;;;;;15.57;8.38;;;19.40;99.90;;;;;;4666216;30;20601;-82
2022/07/31 01:14:59;;;;;;;14.52;7.55;;;19.40;99.90;;;;;;4666615;30;20054;-83
2022/07/31 01:17:26;;;;;;;14.10;7.25;;;19.40;99.90;;;;;;4667684;30;20045;-82
2022/07/31 01:19:53;;;;;;;13.27;7.03;;;19.40;99.90;;;;;;4667668;30;20042;-82
2022/07/31 01:22:38;;;;;;;12.88;6.50;;;19.40;99.90;;;;;;4666274;30;20046;-83
2022/07/31 01:25:34;;;;;;;11.73;6.95;;;19.30;99.90;;;;;;4667725;30;20042;-83
2022/07/31 01:28:29;;;;;;;13.05;7.15;;;19.30;99.90;;;;;;4666143;30;20057;-83
2022/07/31 01:31:02;;;;;;;15.52;6.88;;;19.30;99.90;;;;;;4667284;30;20052;-84
2022/07/31 01:33:35;;;;;;;12.52;6.60;;;19.30;99.90;;;;;;4666212;30;20511;-83
2022/07/31 01:36:15;;;;;;;13.82;7.03;;;19.30;99.90;;;;;;4667594;30;20125;-83
2022/07/31 01:38:46;;;;;;;13.90;6.57;;;19.20;99.90;;;;;;4667492;30;20039;-84
2022/07/31 01:41:16;;;;;;;12.70;7.80;;;19.20;99.90;;;;;;4666068;30;20213;-83
2022/07/31 01:43:47;;;;;;;15.43;7.00;;;19.20;99.90;;;;;;4666257;30;20416;-85
2022/07/31 01:46:15;;;;;;;11.38;6.50;;;19.20;99.90;;;;;;4667564;30;20518;-83
2022/07/31 01:48:42;;;;;;;13.40;7.90;;;19.20;99.90;;;;;;4667454;30;20133;-82
2022/07/31 01:51:09;;;;;;;12.00;7.93;;;19.20;99.90;;;;;;4669833;30;20034;-83
2022/07/31 01:53:37;;;;;;;12.70;6.93;;;19.20;99.90;;;;;;4669559;30;20119;-83
2022/07/31 01:56:05;;;;;;;13.60;6.88;;;19.10;99.90;;;;;;4670973;30;20113;-83
2022/07/31 01:58:38;;;;;;;14.25;7.95;;;19.10;99.90;;;;;;4670926;30;20062;-82
2022/07/31 02:01:07;;;;;;;14.27;6.63;;;19.10;99.90;;;;;;4669509;30;20046;-83
2022/07/31 02:03:35;;;;;;;13.35;6.88;;;19.00;99.90;;;;;;4669113;30;20038;-82
2022/07/31 02:06:02;;;;;;;12.43;6.88;;;19.00;99.90;;;;;;4670789;30;20374;-84
2022/07/31 02:08:30;;;;;;;14.07;7.80;;;19.00;99.90;;;;;;4670710;30;20128;-84
2022/07/31 02:10:57;;;;;;;13.55;8.75;;;19.00;99.90;;;;;;4670824;30;20049;-83
2022/07/31 02:13:25;;;;;;;14.27;7.43;;;18.90;99.90;;;;;;4670560;30;20515;-83
2022/07/31 02:15:52;;;;;;;15.40;6.57;;;18.90;99.90;;;;;;4669290;30;20049;-83
2022/07/31 02:18:20;;;;;;;11.98;6.55;;;18.90;99.90;;;;;;4670406;30;20494;-83
2022/07/31 02:20:49;;;;;;;12.73;6.68;;;18.90;99.90;;;;;;4669301;30;20397;-83
2022/07/31 02:23:15;;;;;;;12.93;7.25;;;18.90;99.90;;;;;;4670451;30;20048;-83
2022/07/31 02:25:42;;;;;;;12.77;7.40;;;18.90;99.90;;;;;;4670515;30;20333;-83
2022/07/31 02:28:14;;;;;;;13.85;7.50;;;18.80;99.90;;;;;;4670491;30;20374;-83
2022/07/31 02:30:42;;;;;;;14.93;6.43;;;18.80;99.90;;;;;;4669149;30;20041;-83
2022/07/31 02:33:23;;;;;;;13.35;7.30;;;18.80;99.90;;;;;;4670216;30;20414;-83
2022/07/31 02:35:53;;;;;;;12.82;7.20;;;18.80;99.90;;;;;;4668678;30;20038;-82
2022/07/31 02:38:21;;;;;;;15.07;7.25;;;18.80;99.90;;;;;;4668767;30;20064;-82
2022/07/31 02:40:48;;;;;;;13.15;5.97;;;18.80;99.90;;;;;;4668849;30;20046;-82
2022/07/31 02:43:15;;;;;;;11.95;5.80;;;18.70;99.90;;;;;;4670272;30;20060;-82
2022/07/31 02:45:42;;;;;;;11.60;6.05;;;18.80;99.90;;;;;;4670089;30;20255;-83
2022/07/31 02:48:09;;;;;;;13.90;6.38;;;18.80;99.90;;;;;;4668725;30;20093;-83
2022/07/31 02:50:36;;;;;;;13.63;7.32;;;18.70;99.90;;;;;;4668388;30;20133;-82
2022/07/31 02:53:05;;;;;;;12.32;6.35;;;18.80;99.90;;;;;;4670136;30;20069;-84
2022/07/31 02:55:33;;;;;;;11.73;5.82;;;18.80;99.90;;;;;;4668021;30;20042;-83
2022/07/31 02:58:02;;;;;;;13.98;6.43;;;18.80;99.90;;;;;;4667553;30;20459;-83
2022/07/31 03:00:28;;;;;;;11.50;6.32;;;18.80;99.90;;;;;;4668453;30;20042;-82
2022/07/31 03:02:54;;;;;;;16.15;5.85;;;18.70;99.90;;;;;;4667958;30;20050;-83
2022/07/31 03:05:20;;;;;;;11.30;5.80;;;18.70;99.90;;;;;;4669837;30;20049;-83
2022/07/31 03:07:46;;;;;;;14.98;6.32;;;18.70;99.90;;;;;;4669478;30;20097;-84
2022/07/31 03:10:12;;;;;;;15.10;6.05;;;18.70;99.90;;;;;;4668224;30;20046;-83
2022/07/31 03:12:41;;;;;;;10.00;5.22;;;18.60;99.90;;;;;;4669613;30;20049;-83
2022/07/31 03:15:13;;;;;;;11.90;5.78;;;18.60;99.90;;;;;;4667997;30;20132;-83
2022/07/31 03:17:40;;;;;;;10.38;5.00;;;18.60;99.90;;;;;;4668089;30;20121;-83
2022/07/31 03:20:07;;;;;;;11.07;5.22;;;18.60;99.90;;;;;;4668224;30;20331;-83
2022/07/31 03:22:33;;;;;;;12.55;5.85;;;18.60;99.90;;;;;;4668254;30;20133;-83
2022/07/31 03:25:00;;;;;;;12.45;6.25;;;18.60;99.90;;;;;;4669504;30;20034;-83
2022/07/31 03:27:26;;;;;;;9.80;5.18;;;18.60;99.90;;;;;;4669162;30;20042;-83
2022/07/31 03:29:53;;;;;;;11.02;4.53;;;18.60;99.90;;;;;;4669487;30;20354;-83
2022/07/31 03:32:19;;;;;;;9.77;5.03;;;18.60;99.90;;;;;;4667601;30;20535;-82
2022/07/31 03:34:45;;;;;;;10.55;4.85;;;18.60;99.90;;;;;;4669230;30;20302;-83
2022/07/31 03:37:12;;;;;;;11.60;5.93;;;18.50;99.90;;;;;;4667703;30;20150;-83
2022/07/31 03:39:38;;;;;;;11.18;5.05;;;18.50;99.90;;;;;;4669174;30;20387;-83
2022/07/31 03:42:04;;;;;;;11.43;5.07;;;18.50;99.90;;;;;;4667765;30;20476;-82
2022/07/31 03:44:32;;;;;;;13.38;5.78;;;18.50;99.90;;;;;;4669240;30;20553;-83
2022/07/31 03:46:59;;;;;;;12.00;6.13;;;18.50;99.90;;;;;;4669434;30;20038;-83
2022/07/31 03:49:26;;;;;;;11.23;6.35;;;18.50;99.90;;;;;;4668957;30;20050;-82
2022/07/31 03:51:52;;;;;;;13.25;6.75;;;18.50;99.90;;;;;;4669237;30;20238;-83
2022/07/31 03:54:18;;;;;;;15.77;7.93;;;18.60;99.90;;;;;;4667898;30;20088;-83
2022/07/31 03:56:48;;;;;;;13.30;6.30;;;18.60;99.90;;;;;;4669105;30;20483;-83
2022/07/31 03:59:15;;;;;;;10.55;5.38;;;16.00;99.90;;;;;;4668990;30;20042;-83
2022/07/31 04:01:42;;;;;;;10.52;5.10;;;18.50;99.90;;;;;;4669200;30;20038;-83
2022/07/31 04:04:08;;;;;;;9.75;4.55;;;18.50;99.90;;;;;;4667448;30;20038;-83
2022/07/31 04:06:34;;;;;;;8.63;4.18;;;18.50;99.90;;;;;;4667659;30;20200;-82
2022/07/31 04:09:00;;;;;;;8.77;3.80;;;18.60;99.90;;;;;;4668771;30;20547;-83
2022/07/31 04:11:27;;;;;;;8.10;4.15;;;18.60;99.90;;;;;;4668782;30;20462;-83
2022/07/31 04:13:53;;;;;;;8.35;4.13;;;18.60;99.90;;;;;;4668033;30;20141;-83
2022/07/31 04:16:19;;;;;;;8.35;4.07;;;18.60;99.90;;;;;;4667405;30;20506;-83
2022/07/31 04:18:45;;;;;;;12.45;4.88;;;18.50;99.90;;;;;;4667321;30;20550;-83
2022/07/31 04:21:10;;;;;;;11.13;6.13;;;18.50;99.90;;;;;;4667285;30;20354;-84
2022/07/31 04:23:36;;;;;;;11.90;5.80;;;18.50;99.90;;;;;;4668663;30;20038;-84
2022/07/31 04:26:02;;;;;;;15.57;5.40;;;18.50;99.90;;;;;;4668714;30;20030;-82
2022/07/31 04:28:28;;;;;;;8.25;4.55;;;18.50;99.90;;;;;;4667061;30;20042;-84
2022/07/31 04:30:57;;;;;;;9.18;4.63;;;18.50;99.90;;;;;;4668441;30;20554;-84
2022/07/31 04:33:23;;;;;;;9.52;5.03;;;18.50;99.90;;;;;;4668293;30;20042;-84
2022/07/31 04:35:52;;;;;;;11.95;5.10;;;18.50;99.90;;;;;;4668486;30;20044;-83
2022/07/31 04:38:19;;;;;;;11.85;4.40;;;21.30;99.90;;;;;;4666984;30;20046;-83
2022/07/31 04:40:45;;;;;;;9.63;4.65;;;18.40;99.90;;;;;;4668345;30;20085;-83
2022/07/31 04:43:11;;;;;;;10.55;5.03;;;18.40;99.90;;;;;;4668264;30;20424;-83
2022/07/31 04:45:37;;;;;;;13.15;5.43;;;18.40;99.90;;;;;;4668085;30;20057;-84
2022/07/31 04:48:03;;;;;;;12.98;5.05;;;18.30;99.90;;;;;;4668263;30;20529;-84
2022/07/31 04:50:29;;;;;;;9.70;5.32;;;18.40;99.90;;;;;;4666824;30;20042;-85
2022/07/31 04:52:55;;;;;;;8.90;4.78;;;18.20;99.90;;;;;;4668108;30;20208;-84
2022/07/31 04:55:20;;;;;;;10.68;4.75;;;18.20;99.90;;;;;;4667966;30;20519;-84
2022/07/31 04:57:46;;;;;;;8.18;4.03;;;15.90;99.90;;;;;;4666633;30;20038;-83
2022/07/31 05:00:13;;;;;;;9.07;4.32;;;18.30;99.90;;;;;;4668022;30;20056;-84
2022/07/31 05:02:39;;;;;;;11.48;4.20;;;18.40;99.90;;;;;;4668214;30;20049;-84
2022/07/31 05:05:06;;;;;;;7.50;3.58;;;18.50;99.90;;;;;;4668200;30;20341;-84
2022/07/31 05:07:33;;;;;;;8.05;4.07;;;18.70;99.90;;;;;;4668007;30;20535;-84
2022/07/31 05:09:59;;;;;;;9.00;3.85;;;18.80;99.90;;;;;;4668722;30;20172;-83
2022/07/31 05:12:25;;;;;;;8.45;4.15;;;18.90;99.90;;;;;;4666154;30;20058;-83
2022/07/31 05:14:52;;;;;;;6.53;3.28;;;19.00;99.90;;;;;;4666575;30;20041;-84
2022/07/31 05:17:18;;;;;;;9.48;3.95;;;19.00;99.90;;;;;;4667015;30;20340;-82
2022/07/31 05:19:43;;;;;;;9.57;5.25;;;19.00;99.90;;;;;;4668996;30;20061;-84
2022/07/31 05:22:10;;;;;;;12.77;5.97;;;19.10;99.90;;;;;;4668780;30;20034;-84
2022/07/31 05:24:36;;;;;;;12.95;6.45;;;19.30;99.90;;;;;;4667315;30;20121;-83
2022/07/31 05:27:02;;;;;;;12.32;5.22;;;19.30;99.90;;;;;;4668844;30;20191;-84
2022/07/31 05:29:29;;;;;;;11.45;5.43;;;19.40;99.90;;;;;;4667662;30;20034;-83
2022/07/31 05:31:55;;;;;;;12.18;5.70;;;19.50;99.90;;;;;;4669096;30;20275;-84
2022/07/31 05:34:21;;;;;;;8.40;4.10;;;19.50;99.90;;;;;;4676445;30;20105;-83
2022/07/31 05:36:47;;;;;;;10.02;4.47;;;19.40;99.90;;;;;;4676917;30;20272;-84
2022/07/31 05:39:13;;;;;;;7.57;3.63;;;;;;;;;;4679596;30;20037;-84
2022/07/31 05:41:39;;;;;;;6.93;3.55;;;19.70;99.90;;;;;;4678841;30;20320;-84
2022/07/31 05:44:04;;;;;;;10.57;4.55;;;19.70;99.90;;;;;;4671623;30;20042;-83
2022/07/31 05:46:31;;;;;;;9.25;4.60;;;19.80;99.90;;;;;;4668732;30;20467;-83
2022/07/31 05:48:57;;;;;;;7.03;3.65;;;19.80;99.90;;;;;;4667657;30;20136;-83
2022/07/31 05:51:23;;;;;;;7.35;3.80;;;19.90;99.90;;;;;;4668515;30;20113;-83
2022/07/31 05:53:49;;;;;;;8.73;4.32;;;20.00;99.90;;;;;;4668506;30;20057;-83
2022/07/31 05:56:15;;;;;;;7.63;4.25;;;;;;;;;;4667168;30;20042;-82
2022/07/31 05:58:41;;;;;;;7.72;3.80;;;20.30;99.90;;;;;;4668130;30;20270;-82
2022/07/31 06:01:06;;;;;;;7.97;3.55;;;20.40;99.90;;;;;;4666422;30;20052;-83
2022/07/31 06:03:34;;;;;;;10.93;4.22;;;20.60;99.90;;;;;;4667624;30;20433;-83
2022/07/31 06:06:04;;;;;;;10.35;4.63;;;20.60;99.90;;;;;;4667974;30;20098;-82
2022/07/31 06:08:30;;;;;;;8.85;4.53;;;20.70;99.90;;;;;;4667623;30;20066;-84
2022/07/31 06:10:56;;;;;;;9.13;5.10;;;20.80;99.90;;;;;;4667813;30;20049;-82
2022/07/31 06:13:26;;;;;;;10.18;5.22;;;22.30;99.90;;;;;;4667322;30;20050;-82
2022/07/31 06:15:52;;;;;;;9.48;5.32;;;20.50;99.90;;;;;;4667735;30;20042;-82
2022/07/31 06:18:18;;;;;;;9.15;4.32;;;20.60;99.90;;;;;;4668413;30;20407;-82
2022/07/31 06:20:44;;;;;;;9.60;4.55;;;20.70;99.90;;;;;;4667907;30;20034;-83
2022/07/31 06:23:10;;;;;;;12.98;5.85;;;;;;;;;;4667921;30;20109;-82
2022/07/31 06:25:36;;;;;;;10.38;4.97;;;20.80;99.90;;;;;;4667471;30;20113;-83
2022/07/31 06:28:02;;;;;;;11.07;6.05;;;20.90;99.90;;;;;;4667347;30;20595;-82
2022/07/31 06:30:28;;;;;;;12.55;7.85;;;20.80;99.90;;;;;;4667400;30;20121;-82
2022/07/31 06:32:54;;;;;;;12.13;6.95;;;20.70;99.90;;;;;;4667326;30;20053;-83
2022/07/31 06:35:20;;;;;;;13.18;7.35;;;20.70;99.90;;;;;;4667351;30;20280;-82
2022/07/31 06:37:46;;;;;;;12.63;6.75;;;20.40;99.90;;;;;;4668725;30;20049;-81
2022/07/31 06:40:12;;;;;;;13.68;7.68;;;20.30;99.90;;;;;;4669061;30;20232;-82
2022/07/31 06:42:38;;;;;;;11.52;7.55;;;20.20;99.90;;;;;;4670588;30;20779;-82
2022/07/31 06:45:05;;;;;;;11.73;6.28;;;19.00;99.90;;;;;;4670365;30;20046;-82
2022/07/31 06:47:31;;;;;;;13.05;7.32;;;20.30;99.90;;;;;;4668970;30;20042;-82
2022/07/31 06:49:56;;;;;;;21.42;8.20;;;18.60;99.90;;;;;;4670280;30;20408;-82
2022/07/31 06:52:22;;;;;;;11.85;6.47;;;20.40;99.90;;;;;;4670679;30;20049;-82
2022/07/31 06:54:48;;;;;;;12.13;7.05;;;20.60;99.90;;;;;;4670345;30;20561;-80
2022/07/31 06:57:14;;;;;;;11.35;7.35;;;20.80;99.90;;;;;;4668172;30;20125;-82
2022/07/31 06:59:40;;;;;;;11.80;6.50;;;21.00;99.90;;;;;;4670165;30;20056;-81
2022/07/31 07:02:06;;;;;;;12.35;6.63;;;21.20;99.90;;;;;;4670386;30;20521;-81
2022/07/31 07:04:32;;;;;;;10.25;5.68;;;21.30;99.90;;;;;;4668271;30;20045;-82
2022/07/31 07:06:58;;;;;;;11.10;6.25;;;21.50;99.90;;;;;;4669870;30;20038;-84
2022/07/31 07:09:23;;;;;;;12.05;6.78;;;21.70;99.90;;;;;;4668408;30;20042;-82
2022/07/31 07:11:49;;;;;;;15.73;9.20;;;21.80;99.90;;;;;;4668408;30;20046;-81
2022/07/31 07:14:15;;;;;;;15.95;9.40;;;22.00;99.90;;;;;;4670169;30;20084;-81
2022/07/31 07:16:41;;;;;;;14.43;7.75;;;22.00;99.90;;;;;;4670036;30;20504;-80
2022/07/31 07:19:07;;;;;;;13.57;8.27;;;21.90;99.90;;;;;;4669692;30;20121;-81
2022/07/31 07:21:33;;;;;;;17.52;8.63;;;21.80;99.90;;;;;;4668628;30;20447;-84
2022/07/31 07:23:58;;;;;;;11.70;6.97;;;21.80;99.90;;;;;;4669964;30;20519;-84
2022/07/31 07:26:33;;;;;;;12.73;7.35;;;21.90;99.90;;;;;;4669658;30;20582;-82
2022/07/31 07:29:00;;;;;;;18.30;8.85;;;21.90;99.90;;;;;;4667978;30;20042;-83
2022/07/31 07:31:26;;;;;;;15.10;8.25;;;22.10;99.90;;;;;;4669540;30;20046;-82
2022/07/31 07:33:55;;;;;;;14.75;8.77;;;22.10;99.90;;;;;;4669665;30;20118;-82
2022/07/31 07:36:22;;;;;;;15.07;8.48;;;22.00;99.90;;;;;;4669668;30;20038;-82
2022/07/31 07:38:48;;;;;;;13.35;8.40;;;22.30;99.90;;;;;;4667752;30;20072;-81
2022/07/31 07:41:14;;;;;;;14.85;8.00;;;22.30;99.90;;;;;;4669637;30;20046;-81
2022/07/31 07:43:40;;;;;;;15.20;7.88;;;22.40;99.90;;;;;;4669304;30;20042;-81
2022/07/31 07:46:06;;;;;;;14.55;8.82;;;22.70;99.90;;;;;;4668189;30;20535;-82
2022/07/31 07:48:31;;;;;;;15.77;9.75;;;22.80;99.90;;;;;;4669370;30;20042;-82
2022/07/31 07:50:57;;;;;;;13.98;7.97;;;23.10;99.90;;;;;;4669277;30;20092;-82
2022/07/31 07:53:23;;;;;;;14.13;8.35;;;23.30;99.90;;;;;;4669843;30;20046;-82
2022/07/31 07:55:52;;;;;;;12.88;6.78;;;23.50;99.90;;;;;;4671617;30;20030;-83
2022/07/31 07:58:18;;;;;;;12.82;6.97;;;23.90;99.90;;;;;;4670782;30;20546;-81
2022/07/31 08:00:44;;;;;;;15.88;7.50;;;23.20;99.90;;;;;;4671465;30;20042;-81
2022/07/31 08:03:10;;;;;;;13.07;7.07;;;23.10;99.90;;;;;;4671044;30;20721;-82
2022/07/31 08:05:39;;;;;;;13.18;7.25;;;22.80;99.90;;;;;;4670319;30;20049;-82
2022/07/31 08:08:05;;;;;;;16.42;7.80;;;22.80;99.90;;;;;;4667998;30;20049;-82
2022/07/31 08:10:30;;;;;;;13.75;7.38;;;22.80;99.90;;;;;;4667809;30;20323;-82
2022/07/31 08:12:57;;;;;;;12.93;6.85;;;22.80;99.90;;;;;;4669033;30;20038;-82
2022/07/31 08:15:23;;;;;;;15.23;8.48;;;22.70;99.90;;;;;;4669331;30;20073;-81
2022/07/31 08:17:52;;;;;;;14.93;7.55;;;22.60;99.90;;;;;;4667355;30;20038;-81
2022/07/31 08:20:17;;;;;;;12.80;6.50;;;22.90;99.90;;;;;;4669055;30;20373;-82
2022/07/31 08:22:46;;;;;;;14.00;7.28;;;22.70;99.90;;;;;;4669026;30;20538;-81
2022/07/31 08:25:12;;;;;;;14.85;6.93;;;22.80;99.90;;;;;;4668772;30;20046;-81
2022/07/31 08:27:38;;;;;;;14.52;6.95;;;22.90;99.90;;;;;;4666820;30;20049;-81
2022/07/31 08:30:04;;;;;;;12.75;6.65;;;22.80;99.90;;;;;;4667698;30;20141;-83
2022/07/31 08:32:30;;;;;;;13.93;7.35;;;22.80;99.90;;;;;;4668524;30;20068;-81
2022/07/31 08:34:56;;;;;;;13.23;5.97;;;22.90;99.90;;;;;;4667633;30;20046;-82
2022/07/31 08:37:21;;;;;;;13.10;6.45;;;22.90;99.60;;;;;;4666726;30;20065;-80
2022/07/31 08:39:50;;;;;;;11.07;5.78;;;22.80;99.90;;;;;;4668386;30;20254;-80
2022/07/31 08:42:17;;;;;;;12.35;6.25;;;22.90;99.90;;;;;;4668838;30;20132;-81
2022/07/31 08:44:45;;;;;;;13.45;5.82;;;23.10;98.80;;;;;;4668761;30;20038;-82
2022/07/31 08:47:16;;;;;;;11.23;5.75;;;23.00;99.00;;;;;;4667470;30;20056;-83
2022/07/31 08:49:47;;;;;;;11.20;5.97;;;23.40;98.40;;;;;;4667201;30;20030;-84
2022/07/31 08:52:19;;;;;;;12.60;5.65;;;23.60;98.30;;;;;;4667163;30;20057;-80
2022/07/31 08:54:46;;;;;;;11.73;5.10;;;23.80;97.60;;;;;;4668547;30;20050;-81
2022/07/31 08:57:12;;;;;;;11.85;5.38;;;24.10;97.10;;;;;;4668390;30;20347;-81
2022/07/31 08:59:40;;;;;;;9.95;5.25;;;24.50;97.10;;;;;;4667575;30;20054;-81
2022/07/31 09:02:10;;;;;;;10.68;6.22;;;24.60;96.10;;;;;;4668261;30;20038;-81
2022/07/31 09:04:36;;;;;;;12.85;5.03;;;24.50;95.90;;;;;;4668457;30;20336;-81
2022/07/31 09:07:03;;;;;;;10.45;5.32;;;24.30;95.80;;;;;;4668253;30;20046;-82
2022/07/31 09:09:29;;;;;;;13.32;6.00;;;24.00;95.90;;;;;;4666520;30;20072;-83
2022/07/31 09:11:56;;;;;;;10.52;5.03;;;23.90;96.30;;;;;;4667905;30;20046;-80
2022/07/31 09:14:29;;;;;;;11.40;5.13;;;24.20;96.60;;;;;;4668180;30;20046;-82
2022/07/31 09:16:55;;;;;;;10.27;5.43;;;24.40;95.80;;;;;;4668176;30;20060;-80
2022/07/31 09:19:24;;;;;;;10.15;4.90;;;24.30;96.20;;;;;;4668060;30;20034;-81
2022/07/31 09:21:51;;;;;;;10.07;5.30;;;24.90;95.70;;;;;;4668282;30;20191;-81
2022/07/31 09:24:28;;;;;;;10.77;5.78;;;25.20;95.30;;;;;;4668014;30;20523;-81
2022/07/31 09:27:05;;;;;;;8.98;4.85;;;25.70;93.60;;;;;;4666158;30;20756;-81
2022/07/31 09:29:40;;;;;;;9.15;4.63;;;25.80;92.30;;;;;;4667812;30;20323;-82
2022/07/31 09:32:16;;;;;;;8.27;4.20;;;25.50;92.90;;;;;;4668014;30;20030;-83
2022/07/31 09:34:43;;;;;;;11.65;4.28;;;25.60;93.30;;;;;;4668086;30;20148;-81
2022/07/31 09:37:13;;;;;;;9.35;4.75;;;25.90;93.00;;;;;;4668173;30;20038;-82
2022/07/31 09:39:40;;;;;;;8.10;4.53;;;25.90;92.30;;;;;;4666556;30;20038;-80
2022/07/31 09:42:07;;;;;;;9.63;4.57;;;25.70;92.00;;;;;;4666643;30;20268;-81
2022/07/31 09:44:42;;;;;;;7.95;3.80;;;25.80;91.90;;;;;;4667707;30;20068;-82
2022/07/31 09:47:25;;;;;;;8.40;3.88;;;25.50;91.30;;;;;;4668113;30;20065;-81
2022/07/31 09:49:57;;;;;;;;;;;25.10;91.50;;;;;;4668588;30;20125;-82
2022/07/31 09:52:24;;;;;;;7.05;3.05;;;24.80;91.90;;;;;;4668127;30;19969;-81
2022/07/31 09:55:19;;;;;;;8.05;3.38;;;24.80;91.00;;;;;;4668081;30;20045;-81
2022/07/31 09:57:55;;;;;;;7.32;3.22;;;24.50;91.30;;;;;;4600040;31;20261;-82
2022/07/31 10:00:23;;;;;;;7.35;3.65;;;24.50;91.40;;;;;;4600263;31;20318;-81
2022/07/31 10:02:49;;;;;;;7.28;3.17;;;24.60;91.60;;;;;;4614052;31;20040;-80
2022/07/31 10:05:16;;;;;;;6.88;2.78;;;25.00;91.50;;;;;;4614052;31;20134;-82
2022/07/31 10:07:42;;;;;;;6.90;3.20;;;25.50;89.60;;;;;;4613852;30;20044;-81
2022/07/31 10:10:11;;;;;;;6.78;3.30;;;25.90;88.50;;;;;;4599763;31;20051;-81
2022/07/31 10:12:40;;;;;;;7.18;3.15;;;26.00;86.70;;;;;;4615335;31;20054;-81
2022/07/31 10:15:10;;;;;;;5.28;2.92;;;26.00;86.90;;;;;;4617290;31;20457;-81
2022/07/31 10:17:40;;;;;;;7.00;3.10;;;25.80;87.50;;;;;;4616919;31;20039;-82
2022/07/31 10:20:07;;;;;;;5.65;2.95;;;25.90;87.40;;;;;;4617240;30;20123;-83
2022/07/31 10:22:43;;;;;;;8.25;3.30;;;25.70;86.90;;;;;;4617444;30;20039;-81
2022/07/31 10:25:12;;;;;;;6.57;3.08;;;25.50;87.90;;;;;;4617258;31;20047;-81
2022/07/31 10:27:39;;;;;;;6.60;3.03;;;25.40;89.20;;;;;;4603276;31;20054;-81
2022/07/31 10:30:07;;;;;;;6.72;2.88;;;25.30;88.10;;;;;;4617104;31;20194;-81
2022/07/31 10:32:33;;;;;;;7.95;3.42;;;25.70;88.40;;;;;;4602669;31;20134;-82
2022/07/31 10:35:02;;;;;;;8.25;2.72;;;26.20;87.70;;;;;;4661611;30;20511;-83
2022/07/31 10:37:57;;;;;;;6.55;3.08;;;26.50;85.50;;;;;;4670715;30;20034;-82
2022/07/31 10:40:38;;;;;;;5.40;2.85;;;26.70;83.00;;;;;;4670535;30;20301;-82
2022/07/31 10:43:29;;;;;;;7.65;3.05;;;26.80;83.10;;;;;;4670499;30;20050;-81
2022/07/31 10:45:55;;;;;;;7.50;2.80;;;27.20;80.90;;;;;;4669203;30;20199;-81
2022/07/31 10:48:22;;;;;;;8.48;3.33;;;27.80;81.10;;;;;;4669254;30;20042;-82
2022/07/31 10:50:59;;;;;;;6.40;2.88;;;28.40;81.60;;;;;;4670657;30;20113;-82
2022/07/31 10:53:25;;;;;;;6.68;2.72;;;28.70;77.00;;;;;;4670337;30;20054;-82
2022/07/31 10:56:00;;;;;;;6.53;3.17;;;28.80;75.20;;;;;;4670463;30;20511;-82
2022/07/31 10:58:26;;;;;;;6.75;2.97;;;28.40;74.70;;;;;;4670190;30;20061;-81
2022/07/31 11:01:03;;;;;;;4.93;2.88;;;28.40;75.10;;;;;;4670584;30;20058;-81
2022/07/31 11:03:39;;;;;;;7.70;3.15;;;28.30;74.20;;;;;;4670461;30;20330;-82
2022/07/31 11:06:05;;;;;;;6.75;2.78;;;28.40;74.10;;;;;;4669021;30;20064;-82
2022/07/31 11:08:44;;;;;;;8.68;3.72;;;28.60;74.70;;;;;;4669046;30;20039;-81
2022/07/31 11:11:10;;;;;;;9.30;3.65;;;28.60;75.30;;;;;;4670266;30;20183;-81
2022/07/31 11:13:51;;;;;;;8.30;3.83;;;28.60;74.00;;;;;;4671110;30;20093;-81
2022/07/31 11:16:18;;;;;;;8.85;3.95;;;28.30;75.10;;;;;;4671049;30;20098;-81
2022/07/31 11:18:55;;;;;;;9.68;4.32;;;28.00;76.00;;;;;;4671073;30;20045;-80
2022/07/31 11:21:30;;;;;;;8.80;4.15;;;27.90;75.90;;;;;;4671435;30;20234;-81
2022/07/31 11:23:57;;;;;;;8.63;4.38;;;27.60;76.20;;;;;;4669907;30;20056;-83
2022/07/31 11:26:23;;;;;;;10.15;3.60;;;27.70;77.80;;;;;;4670006;30;20041;-81
2022/07/31 11:28:49;;;;;;;7.75;3.83;;;;;;;;;;4670041;30;20124;-81
2022/07/31 11:31:15;;;;;;;7.95;4.25;;;28.50;75.30;;;;;;4670252;30;20041;-85
2022/07/31 11:33:45;;;;;;;9.88;3.72;;;28.80;74.20;;;;;;4670078;30;20046;-83
2022/07/31 11:36:15;;;;;;;8.32;4.10;;;29.20;71.30;;;;;;4670014;30;20030;-82
2022/07/31 11:38:44;;;;;;;8.75;3.45;;;29.40;70.70;;;;;;4669938;30;20590;-84
2022/07/31 11:41:10;;;;;;;7.15;3.10;;;29.70;68.70;;;;;;4668248;30;20466;-83
2022/07/31 11:43:41;;;;;;;8.13;3.67;;;30.20;67.70;;;;;;4668429;30;20538;-83
2022/07/31 11:46:07;;;;;;;7.75;3.60;;;30.30;64.60;;;;;;4669732;30;20042;-80
2022/07/31 11:48:36;;;;;;;9.70;4.22;;;30.20;65.50;;;;;;4669697;30;20353;-83
2022/07/31 11:51:02;;;;;;;5.93;2.70;;;30.40;65.30;;;;;;4669715;30;20130;-80
2022/07/31 11:53:29;;;;;;;7.47;4.03;;;31.70;62.50;;;;;;4668073;30;20355;-80
2022/07/31 11:55:59;;;;;;;8.10;3.78;;;30.20;63.10;;;;;;4669337;30;20381;-81
2022/07/31 11:58:27;;;;;;;5.00;2.33;;;30.50;63.00;;;;;;4668163;30;20057;-83
2022/07/31 12:00:58;;;;;;;5.53;2.50;;;30.90;60.50;;;;;;4669329;30;20041;-82
2022/07/31 12:03:29;;;;;;;5.43;2.47;;;31.00;59.90;;;;;;4669351;30;20102;-81
2022/07/31 12:05:55;;;;;;;4.20;2.17;;;30.80;58.50;;;;;;4668121;30;20042;-81
2022/07/31 12:08:23;;;;;;;4.50;2.08;;;30.90;59.50;;;;;;4669002;30;20536;-83
2022/07/31 12:10:55;;;;;;;3.22;1.73;;;30.70;58.00;;;;;;4669375;30;20153;-83
2022/07/31 12:13:23;;;;;;;3.23;1.60;;;30.80;56.30;;;;;;4669221;30;20038;-81
2022/07/31 12:15:56;;;;;;;4.35;1.85;;;29.50;54.80;;;;;;4669507;30;20663;-80
2022/07/31 12:18:22;;;;;;;3.58;1.50;;;30.90;55.30;;;;;;4669514;30;20068;-83
2022/07/31 12:20:55;;;;;;;3.00;1.70;;;30.90;54.70;;;;;;4669690;30;20044;-83
2022/07/31 12:23:22;;;;;;;3.03;1.70;;;30.90;55.40;;;;;;4669104;30;20042;-81
2022/07/31 12:25:48;;;;;;;6.25;1.98;;;30.80;55.10;;;;;;4667509;30;20037;-82
2022/07/31 12:28:14;;;;;;;5.13;1.80;;;31.10;54.30;;;;;;4669298;30;20362;-81
2022/07/31 12:30:41;;;;;;;2.22;1.30;;;31.40;54.30;;;;;;4667727;30;20074;-80
2022/07/31 12:33:08;;;;;;;3.75;1.73;;;31.80;53.10;;;;;;4668950;30;20112;-81
2022/07/31 12:35:41;;;;;;;5.35;1.50;;;32.40;50.90;;;;;;4668072;30;20579;-81
2022/07/31 12:38:08;;;;;;;2.80;1.45;;;33.00;50.60;;;;;;4667070;30;20431;-81
2022/07/31 12:40:34;;;;;;;2.92;1.38;;;33.10;49.70;;;;;;4667561;30;20042;-81
2022/07/31 12:43:01;;;;;;;5.00;2.35;;;33.20;49.50;;;;;;4668732;30;20034;-80
2022/07/31 12:45:28;;;;;;;3.42;1.40;;;32.80;49.10;;;;;;4669701;30;20042;-81
2022/07/31 12:47:54;;;;;;;3.28;1.77;;;32.60;48.10;;;;;;4668496;30;20038;-81